aviador You're here:

GMMN Decoded Metar

CASABLANCA in MOROCCO
Report Time2018-01-17 04:30:00
UTC Time2018-01-17 05:05:00
Flight Rules mvfr MVFR
Wind140° at 02 kt
W.Decomp.*RWY 17: 1.8 kt HW 0.9 kt LCW
W.Rank140° ranks 24
Current wind is below 140° avg. (4.0)
Visibility6000 m
Phenomena:N/A
Clouds:Few 010 Hf
Expected CloudBase > 400 ft AGL from Temp-Dew spread
CeilingNone
Temp05°C (ISA -9)
Dew Point04°C (93% RH)
AAT3.0°C
QNH1024 hPa
Density Alt-630 ft
Elevation676 ft
Report Wrong Elevation
Raw Report
GMMN 170430Z 14002KT 6000 FEW010 05/04 Q1024 NOSIG=

Extra information for GMMN:More info

Metar Taf Metar & Taf Last 4 Metars F.Rules Stats Wind Profile Meteogram Temp Stats Airport Information Weather charts Add Link Nearby VenuesMetar ALERT Operation Metar Decoded Social comments